Terminal Aerodrome Forecast
Issued by NWS

Home | Current Version | Previous Version | Text Only | Print | Product List | Glossary On
Versions: 1 2 3 4 5 6 7 8 9 10 11 12 13 14
000
FTUS44 KJAN 222327
TAFGTR
TAF
KGTR 222327Z 2300/2324 25006KT 6SM -SHRA SCT025 OVC050
     FM230300 29012KT 5SM -SHRA BR BKN015 OVC050
     FM230500 30014G23KT 5SM -RA BR BKN015 OVC050
     FM230900 31017G26KT 6SM BR VCSH BKN008 OVC025
     FM231300 31014G25KT P6SM BKN015 BKN250
     FM231600 32013G22KT P6SM SCT015 SCT250=

USA.gov is the U.S. government's official web portal to all federal, state and local government web resources and services.